createdAt,value
2023-03-03T00:01:11.606Z,15.27
2023-03-03T00:03:39.410Z,16.57
2023-03-03T00:06:11.227Z,16.93
2023-03-03T00:08:39.600Z,17.33
2023-03-03T00:11:08.694Z,14.85
2023-03-03T00:13:45.804Z,16.23
2023-03-03T00:16:23.162Z,15.88
2023-03-03T00:18:51.559Z,15.27
2023-03-03T00:21:41.970Z,14.95
2023-03-03T00:24:18.744Z,16.15
2023-03-03T00:26:48.995Z,16.00
2023-03-03T00:29:32.228Z,15.63
2023-03-03T00:32:16.928Z,17.02
2023-03-03T00:34:45.895Z,17.25
2023-03-03T00:37:26.699Z,16.77
2023-03-03T00:39:54.291Z,17.17
2023-03-03T00:42:24.427Z,17.00
2023-03-03T00:44:57.816Z,14.60
2023-03-03T00:47:31.261Z,17.02
2023-03-03T00:50:25.982Z,17.95
2023-03-03T00:53:01.632Z,16.92
2023-03-03T00:55:29.491Z,18.40
2023-03-03T00:57:58.929Z,14.93
2023-03-03T01:00:26.888Z,19.50
2023-03-03T01:02:54.566Z,17.50
2023-03-03T01:05:22.692Z,16.42
2023-03-03T01:07:50.436Z,16.57
2023-03-03T01:10:18.303Z,17.27
2023-03-03T01:12:46.178Z,17.30
2023-03-03T01:15:16.031Z,16.80
2023-03-03T01:17:44.318Z,16.73
2023-03-03T01:20:14.421Z,17.33
2023-03-03T01:22:42.406Z,16.08
2023-03-03T01:25:11.163Z,18.93
2023-03-03T01:27:38.826Z,16.50
2023-03-03T01:30:07.619Z,18.13
2023-03-03T01:32:36.633Z,15.35
2023-03-03T01:35:04.708Z,18.07
2023-03-03T01:37:34.700Z,16.13
2023-03-03T01:40:02.499Z,15.77
2023-03-03T01:42:30.782Z,20.02
2023-03-03T01:45:17.682Z,15.95
2023-03-03T01:47:52.442Z,16.37
2023-03-03T01:50:45.423Z,16.07
2023-03-03T01:53:17.033Z,15.57
2023-03-03T01:55:46.078Z,16.27
2023-03-03T01:58:19.547Z,18.30
2023-03-03T02:00:51.505Z,17.98
2023-03-03T02:03:22.240Z,15.93
2023-03-03T02:05:50.651Z,16.27
2023-03-03T02:08:22.783Z,15.80
2023-03-03T02:10:51.984Z,17.60
2023-03-03T02:13:19.677Z,17.60
2023-03-03T02:15:47.490Z,16.67
2023-03-03T02:18:17.804Z,14.70
2023-03-03T02:20:57.834Z,16.90
2023-03-03T02:23:30.948Z,16.33
2023-03-03T02:26:09.824Z,16.45
2023-03-03T02:28:39.451Z,16.25
2023-03-03T02:31:10.894Z,16.48
2023-03-03T02:33:38.627Z,15.32
2023-03-03T02:36:06.822Z,16.10
2023-03-03T02:38:42.228Z,15.95
2023-03-03T02:41:17.632Z,15.63
2023-03-03T02:43:52.367Z,13.75
2023-03-03T02:46:20.188Z,16.85
2023-03-03T02:48:47.902Z,15.48
2023-03-03T02:51:15.626Z,16.83
2023-03-03T02:53:43.274Z,16.17
2023-03-03T02:56:12.420Z,18.08
2023-03-03T02:58:40.064Z,16.95
2023-03-03T03:01:08.054Z,13.75
2023-03-03T03:03:35.685Z,15.25
2023-03-03T03:06:03.586Z,16.42
2023-03-03T03:08:31.374Z,17.02
2023-03-03T03:10:58.982Z,14.20
2023-03-03T03:13:28.536Z,14.95
2023-03-03T03:15:56.423Z,16.80
2023-03-03T03:18:24.148Z,16.45
2023-03-03T03:20:51.752Z,17.25
2023-03-03T03:23:21.924Z,18.30
2023-03-03T03:25:49.928Z,15.43
2023-03-03T03:28:18.768Z,16.98
2023-03-03T03:30:47.800Z,14.55
2023-03-03T03:33:15.419Z,15.52
2023-03-03T03:35:45.691Z,17.60
2023-03-03T03:38:13.662Z,16.42
2023-03-03T03:40:41.945Z,15.55
2023-03-03T03:43:09.790Z,14.88
2023-03-03T03:45:37.483Z,15.38
2023-03-03T03:48:07.050Z,17.58
2023-03-03T03:50:34.870Z,19.63
2023-03-03T03:53:02.595Z,14.98
2023-03-03T03:55:30.245Z,19.15
2023-03-03T03:57:58.525Z,17.98
2023-03-03T04:00:26.576Z,19.27
2023-03-03T04:02:54.399Z,18.17
2023-03-03T04:05:23.634Z,18.27
2023-03-03T04:07:51.603Z,15.18
2023-03-03T04:10:19.365Z,17.10
2023-03-03T04:12:47.174Z,16.90
2023-03-03T04:15:16.024Z,16.90
2023-03-03T04:17:43.999Z,18.10
2023-03-03T04:20:15.376Z,17.40
2023-03-03T04:22:44.596Z,16.88
2023-03-03T04:25:15.342Z,17.40
2023-03-03T04:27:44.276Z,18.55
2023-03-03T04:30:13.724Z,17.25
2023-03-03T04:32:41.962Z,18.10
2023-03-03T04:35:10.984Z,18.67
2023-03-03T04:37:39.464Z,17.33
2023-03-03T04:40:10.461Z,18.95
2023-03-03T04:42:38.411Z,17.00
2023-03-03T04:45:07.129Z,18.27
2023-03-03T04:47:34.941Z,18.50
2023-03-03T04:50:02.561Z,17.73
2023-03-03T04:52:30.368Z,19.03
2023-03-03T04:54:58.068Z,19.20
2023-03-03T04:57:27.136Z,19.30
2023-03-03T04:59:55.006Z,20.13
2023-03-03T05:02:22.972Z,18.50
2023-03-03T05:04:50.627Z,21.45
2023-03-03T05:07:20.172Z,20.13
2023-03-03T05:09:47.910Z,21.38
2023-03-03T05:12:16.096Z,22.45
2023-03-03T05:14:45.172Z,22.90
2023-03-03T05:17:12.842Z,24.30
2023-03-03T05:19:41.466Z,26.98
2023-03-03T05:22:13.233Z,21.83
2023-03-03T05:24:42.869Z,23.13
2023-03-03T05:27:11.884Z,24.15
2023-03-03T05:29:40.138Z,24.77
2023-03-03T05:32:09.404Z,29.70
2023-03-03T05:34:37.284Z,27.55
2023-03-03T05:37:06.887Z,28.00
2023-03-03T05:39:35.095Z,26.40
2023-03-03T05:42:03.564Z,34.38
2023-03-03T05:44:32.670Z,37.97
2023-03-03T05:47:00.447Z,32.15
2023-03-03T05:49:29.628Z,30.95
2023-03-03T05:51:57.292Z,30.40
2023-03-03T05:54:25.066Z,32.25
2023-03-03T05:56:52.866Z,35.35
2023-03-03T05:59:21.108Z,33.65
2023-03-03T06:01:48.710Z,42.20
2023-03-03T06:04:16.336Z,49.80
2023-03-03T06:06:45.408Z,51.55
2023-03-03T06:09:13.089Z,45.50
2023-03-03T06:11:40.725Z,33.42
2023-03-03T06:14:08.349Z,36.35
2023-03-03T06:16:36.130Z,36.70
2023-03-03T06:19:03.858Z,32.60
2023-03-03T06:21:31.506Z,33.97
2023-03-03T06:24:00.533Z,35.87
2023-03-03T06:26:28.253Z,32.40
2023-03-03T06:28:55.892Z,29.85
2023-03-03T06:31:23.588Z,30.77
2023-03-03T06:33:51.433Z,29.70
2023-03-03T06:36:20.814Z,29.33
2023-03-03T06:38:48.936Z,29.70
2023-03-03T06:41:18.204Z,34.90
2023-03-03T06:43:46.408Z,34.85
2023-03-03T06:46:14.222Z,32.70
2023-03-03T06:48:41.957Z,34.20
2023-03-03T06:51:23.324Z,34.63
2023-03-03T06:53:53.789Z,34.53
2023-03-03T06:56:23.174Z,34.10
2023-03-03T06:58:51.543Z,30.73
2023-03-03T07:01:19.390Z,33.42
2023-03-03T07:03:47.442Z,34.03
2023-03-03T07:06:23.882Z,33.08
2023-03-03T07:08:52.857Z,33.70
2023-03-03T07:11:24.181Z,36.33
2023-03-03T07:13:53.498Z,36.80
2023-03-03T07:16:26.417Z,36.08
2023-03-03T07:18:55.804Z,36.85
2023-03-03T07:21:26.620Z,37.90
2023-03-03T07:23:54.936Z,36.90
2023-03-03T07:26:28.907Z,37.17
2023-03-03T07:28:59.561Z,40.72
2023-03-03T07:31:35.110Z,44.13
2023-03-03T07:34:05.249Z,40.38
2023-03-03T07:36:36.838Z,44.28
2023-03-03T07:39:15.476Z,47.47
2023-03-03T07:41:44.624Z,44.28
2023-03-03T07:44:20.175Z,43.50
2023-03-03T07:46:50.506Z,48.70
2023-03-03T07:49:23.808Z,53.65
2023-03-03T07:51:55.271Z,56.90
2023-03-03T07:54:32.913Z,54.67
2023-03-03T07:57:19.914Z,55.75
2023-03-03T07:59:49.650Z,55.15
2023-03-03T08:02:36.077Z,52.35
2023-03-03T08:05:34.796Z,54.95
2023-03-03T08:08:29.320Z,50.15
2023-03-03T08:10:57.936Z,51.15
2023-03-03T08:13:31.732Z,50.53
2023-03-03T08:16:02.989Z,50.22
2023-03-03T08:18:36.135Z,47.13
2023-03-03T08:21:04.336Z,44.30
2023-03-03T08:23:31.955Z,48.63
2023-03-03T08:25:59.633Z,47.87
2023-03-03T08:28:28.977Z,46.55
2023-03-03T08:31:13.004Z,45.75
2023-03-03T08:33:44.595Z,46.27
2023-03-03T08:36:13.036Z,48.70
2023-03-03T08:38:41.215Z,46.50
2023-03-03T08:41:08.931Z,45.33
2023-03-03T08:43:38.210Z,45.30
2023-03-03T08:46:07.625Z,46.20
2023-03-03T08:48:35.296Z,51.72
2023-03-03T08:51:03.446Z,46.15
2023-03-03T08:53:33.560Z,47.20
2023-03-03T08:56:01.224Z,48.95
2023-03-03T08:58:35.064Z,49.78
2023-03-03T09:01:05.512Z,47.70
2023-03-03T09:03:33.561Z,47.25
2023-03-03T09:06:01.265Z,48.22
2023-03-03T09:08:28.946Z,49.88
2023-03-03T09:10:56.643Z,50.58
2023-03-03T09:13:24.464Z,48.78
2023-03-03T09:15:52.253Z,48.05
2023-03-03T09:18:23.536Z,52.73
2023-03-03T09:20:52.504Z,50.78
2023-03-03T09:23:31.563Z,50.63
2023-03-03T09:26:00.259Z,51.92
2023-03-03T09:28:30.187Z,49.65
2023-03-03T09:30:59.296Z,52.92
2023-03-03T09:33:31.044Z,48.58
2023-03-03T09:36:05.116Z,46.75
2023-03-03T09:38:34.877Z,48.95
2023-03-03T09:41:25.507Z,49.08
2023-03-03T09:44:05.943Z,46.47
2023-03-03T09:46:42.302Z,48.72
2023-03-03T09:49:22.238Z,48.58
2023-03-03T09:52:16.434Z,49.15
2023-03-03T09:54:55.830Z,48.92
2023-03-03T09:57:30.654Z,48.10
2023-03-03T10:00:21.323Z,48.03
2023-03-03T10:03:04.848Z,47.00
2023-03-03T10:05:46.536Z,48.75
2023-03-03T10:08:31.752Z,48.45
2023-03-03T10:11:05.341Z,48.45
2023-03-03T10:13:44.635Z,48.97
2023-03-03T10:16:33.588Z,46.15
2023-03-03T10:19:04.495Z,51.47
2023-03-03T10:21:40.796Z,47.88
2023-03-03T10:24:24.722Z,47.17
2023-03-03T10:27:13.472Z,47.35
2023-03-03T10:29:51.346Z,51.80
2023-03-03T10:32:41.273Z,45.95
2023-03-03T10:35:42.504Z,45.45
2023-03-03T10:38:38.141Z,48.67
2023-03-03T10:41:21.330Z,49.10
2023-03-03T10:44:05.232Z,46.00
2023-03-03T10:46:51.614Z,48.63
2023-03-03T10:49:31.940Z,47.97
2023-03-03T10:52:26.719Z,48.85
2023-03-03T10:55:11.278Z,46.67
2023-03-03T10:57:48.075Z,47.03
2023-03-03T11:00:22.598Z,47.33
2023-03-03T11:03:22.391Z,48.95
2023-03-03T11:05:54.851Z,47.97
2023-03-03T11:08:29.470Z,45.92
2023-03-03T11:11:11.128Z,46.50
2023-03-03T11:13:47.009Z,47.15
2023-03-03T11:16:30.786Z,44.60
2023-03-03T11:19:11.541Z,44.42
2023-03-03T11:21:48.105Z,45.55
2023-03-03T11:24:32.965Z,43.90
2023-03-03T11:27:15.471Z,43.73
2023-03-03T11:29:57.372Z,46.30
2023-03-03T11:32:33.581Z,44.95
2023-03-03T11:35:20.661Z,44.25
2023-03-03T11:37:58.172Z,43.53
2023-03-03T11:40:28.800Z,45.38
2023-03-03T11:43:06.962Z,43.67
2023-03-03T11:45:41.310Z,43.37
2023-03-03T11:48:16.872Z,46.53
2023-03-03T11:50:53.803Z,42.13
2023-03-03T11:53:32.935Z,40.73
2023-03-03T11:56:08.543Z,42.47
2023-03-03T11:58:44.852Z,43.55
2023-03-03T12:01:21.010Z,40.42
2023-03-03T12:03:55.225Z,40.60
2023-03-03T12:06:31.580Z,39.95
2023-03-03T12:09:17.272Z,41.25
2023-03-03T12:11:52.208Z,42.83
2023-03-03T12:14:37.322Z,42.15
2023-03-03T12:17:13.218Z,40.22
2023-03-03T12:19:51.740Z,41.30
2023-03-03T12:22:31.178Z,39.60
2023-03-03T12:25:13.226Z,42.15
2023-03-03T12:27:49.825Z,43.40
2023-03-03T12:30:34.681Z,41.15
2023-03-03T12:33:20.062Z,41.70
2023-03-03T12:35:56.596Z,43.63
2023-03-03T12:38:35.251Z,42.33
2023-03-03T12:41:09.868Z,41.83
2023-03-03T12:43:54.161Z,39.88
2023-03-03T12:46:30.068Z,49.33
2023-03-03T12:48:57.756Z,46.15
2023-03-03T12:51:38.216Z,54.07
2023-03-03T12:54:25.964Z,38.83
2023-03-03T12:56:56.946Z,40.33
2023-03-03T12:59:36.231Z,43.03
2023-03-03T13:02:26.514Z,40.50
2023-03-03T13:05:01.831Z,39.60
2023-03-03T13:07:38.436Z,39.20
2023-03-03T13:10:17.866Z,37.10
2023-03-03T13:12:50.007Z,37.97
2023-03-03T13:15:31.616Z,41.77
2023-03-03T13:18:21.205Z,37.25
2023-03-03T13:20:52.330Z,39.00
2023-03-03T13:23:32.855Z,37.90
2023-03-03T13:26:07.765Z,36.33
2023-03-03T13:28:41.608Z,39.33
2023-03-03T13:31:15.468Z,39.97
2023-03-03T13:33:53.632Z,40.03
2023-03-03T13:36:26.633Z,37.03
2023-03-03T13:38:58.993Z,34.83
2023-03-03T13:41:32.336Z,34.65
2023-03-03T13:44:05.038Z,32.47
2023-03-03T13:46:41.850Z,35.17
2023-03-03T13:49:31.816Z,35.95
2023-03-03T13:52:04.524Z,37.97
2023-03-03T13:54:59.378Z,34.33
2023-03-03T13:57:53.879Z,37.30
2023-03-03T14:00:31.848Z,36.72
2023-03-03T14:03:28.969Z,36.75
2023-03-03T14:06:03.642Z,37.33
2023-03-03T14:09:02.205Z,39.15
2023-03-03T14:11:37.117Z,37.13
2023-03-03T14:14:14.820Z,34.75
2023-03-03T14:16:51.950Z,37.08
2023-03-03T14:19:24.865Z,32.33
2023-03-03T14:22:06.869Z,33.88
2023-03-03T14:25:01.597Z,34.80
2023-03-03T14:27:36.308Z,34.70
2023-03-03T14:30:31.068Z,37.80
2023-03-03T14:33:07.001Z,34.58
2023-03-03T14:35:36.680Z,35.22
2023-03-03T14:38:11.297Z,35.45
2023-03-03T14:40:42.853Z,33.65
2023-03-03T14:43:24.086Z,35.88
2023-03-03T14:45:52.754Z,34.13
2023-03-03T14:48:22.700Z,36.17
2023-03-03T14:50:53.381Z,32.80
2023-03-03T14:53:33.987Z,35.45
2023-03-03T14:56:23.642Z,35.00
2023-03-03T14:58:52.150Z,37.85
2023-03-03T15:01:30.947Z,37.88
2023-03-03T15:04:03.486Z,34.40
2023-03-03T15:06:41.626Z,35.85
2023-03-03T15:09:43.293Z,37.23
2023-03-03T15:12:24.479Z,34.80
2023-03-03T15:14:53.739Z,33.42
2023-03-03T15:17:28.738Z,33.55
2023-03-03T15:20:14.697Z,35.67
2023-03-03T15:22:48.652Z,40.45
2023-03-03T15:25:34.778Z,37.80
2023-03-03T15:28:23.514Z,34.97
2023-03-03T15:30:56.399Z,38.50
2023-03-03T15:33:30.560Z,36.53
2023-03-03T15:36:05.122Z,35.47
2023-03-03T15:38:44.937Z,36.80
2023-03-03T15:41:26.538Z,36.03
2023-03-03T15:44:13.388Z,36.53
2023-03-03T15:46:54.817Z,35.67
2023-03-03T15:49:42.335Z,33.90
2023-03-03T15:52:23.438Z,35.13
2023-03-03T15:55:01.586Z,36.75
2023-03-03T15:57:39.503Z,35.67
2023-03-03T16:00:55.777Z,38.73
2023-03-03T16:03:29.596Z,37.10
2023-03-03T16:06:02.301Z,40.27
2023-03-03T16:08:37.620Z,38.72
2023-03-03T16:11:11.832Z,35.13
2023-03-03T16:13:53.000Z,38.47
2023-03-03T16:16:32.150Z,36.38
2023-03-03T16:19:12.727Z,40.05
2023-03-03T16:22:08.921Z,38.40
2023-03-03T16:24:51.433Z,36.53
2023-03-03T16:27:24.621Z,36.33
2023-03-03T16:30:05.231Z,37.67
2023-03-03T16:32:41.820Z,38.17
2023-03-03T16:35:23.295Z,39.13
2023-03-03T16:37:59.086Z,39.42
2023-03-03T16:40:30.804Z,36.58
2023-03-03T16:43:06.841Z,37.95
2023-03-03T16:45:36.452Z,39.95
2023-03-03T16:48:27.273Z,36.35
2023-03-03T16:51:12.921Z,37.83
2023-03-03T16:53:52.047Z,37.78
2023-03-03T16:56:24.121Z,36.25
2023-03-03T16:59:14.820Z,45.10
2023-03-03T17:01:50.597Z,36.30
2023-03-03T17:04:35.637Z,39.22
2023-03-03T17:07:13.719Z,35.72
2023-03-03T17:09:53.086Z,37.15
2023-03-03T17:12:38.931Z,33.65
2023-03-03T17:15:16.334Z,38.72
2023-03-03T17:17:48.084Z,37.13
2023-03-03T17:20:31.167Z,33.88
2023-03-03T17:23:23.844Z,34.08
2023-03-03T17:26:00.239Z,32.13
2023-03-03T17:28:40.119Z,32.40
2023-03-03T17:31:14.372Z,32.27
2023-03-03T17:34:06.741Z,35.65
2023-03-03T17:36:49.417Z,32.75
2023-03-03T17:39:36.012Z,34.50
2023-03-03T17:42:10.526Z,34.75
2023-03-03T17:44:47.437Z,34.03
2023-03-03T17:47:32.140Z,36.00
2023-03-03T17:50:19.512Z,62.78
2023-03-03T17:53:14.483Z,35.03
2023-03-03T17:56:04.563Z,61.58
2023-03-03T17:59:04.989Z,113.23
2023-03-03T18:01:50.402Z,146.38
2023-03-03T18:04:31.584Z,187.10
2023-03-03T18:07:23.657Z,52.10
2023-03-03T18:10:26.187Z,90.95
2023-03-03T18:13:02.885Z,39.80
2023-03-03T18:15:45.244Z,90.10
2023-03-03T18:18:32.020Z,120.75
2023-03-03T18:21:08.968Z,72.47
2023-03-03T18:23:42.644Z,427.33
2023-03-03T18:26:41.248Z,196.82
2023-03-03T18:29:20.385Z,768.00
2023-03-03T18:32:01.257Z,373.40
2023-03-03T18:34:35.695Z,129.57
2023-03-03T18:37:08.439Z,80.32
2023-03-03T18:39:43.343Z,64.13
2023-03-03T18:42:37.669Z,42.00
2023-03-03T18:45:44.869Z,37.58
2023-03-03T18:48:13.965Z,36.60
2023-03-03T18:50:43.510Z,40.53
2023-03-03T18:53:26.756Z,43.83
2023-03-03T18:55:56.460Z,46.28
2023-03-03T18:58:52.787Z,40.70
2023-03-03T19:01:43.181Z,46.90
2023-03-03T19:04:19.211Z,54.30
2023-03-03T19:07:10.011Z,46.05
2023-03-03T19:09:57.073Z,40.75
2023-03-03T19:12:47.317Z,40.33
2023-03-03T19:15:56.436Z,39.55
2023-03-03T19:18:27.349Z,40.13
2023-03-03T19:20:59.426Z,41.42
2023-03-03T19:23:48.796Z,44.80
2023-03-03T19:26:50.589Z,40.53
2023-03-03T19:29:40.233Z,41.83
2023-03-03T19:32:29.377Z,41.65
2023-03-03T19:35:09.247Z,40.90
2023-03-03T19:37:48.259Z,41.78
2023-03-03T19:40:22.984Z,40.97
2023-03-03T19:43:02.095Z,43.42
2023-03-03T19:45:49.137Z,43.75
2023-03-03T19:48:28.266Z,45.65
2023-03-03T19:51:02.865Z,43.65
2023-03-03T19:53:38.117Z,44.17
2023-03-03T19:56:20.412Z,47.05
2023-03-03T19:59:01.953Z,46.42
2023-03-03T20:01:42.229Z,46.75
2023-03-03T20:04:54.035Z,60.17
2023-03-03T20:07:31.380Z,55.33
2023-03-03T20:10:08.574Z,71.88
2023-03-03T20:12:53.817Z,59.05
2023-03-03T20:15:29.732Z,57.55
2023-03-03T20:18:36.552Z,58.13
2023-03-03T20:21:14.082Z,108.07
2023-03-03T20:23:58.101Z,64.35
2023-03-03T20:26:33.108Z,55.47
2023-03-03T20:29:28.720Z,56.58
2023-03-03T20:32:06.269Z,51.63
2023-03-03T20:34:41.984Z,50.92
2023-03-03T20:37:15.599Z,57.63
2023-03-03T20:39:55.947Z,56.75
2023-03-03T20:42:39.078Z,59.80
2023-03-03T20:45:28.388Z,54.58
2023-03-03T20:48:11.648Z,55.60
2023-03-03T20:50:50.290Z,55.97
2023-03-03T20:53:27.556Z,54.05
2023-03-03T20:56:05.588Z,60.25
2023-03-03T20:58:44.013Z,59.77
2023-03-03T21:01:15.641Z,60.38
2023-03-03T21:03:45.308Z,56.53
2023-03-03T21:06:15.605Z,58.05
2023-03-03T21:08:53.300Z,61.25
2023-03-03T21:11:23.254Z,60.40
2023-03-03T21:13:54.075Z,58.42
2023-03-03T21:16:33.130Z,61.20
2023-03-03T21:19:03.297Z,65.63
2023-03-03T21:21:33.274Z,72.28
2023-03-03T21:24:02.578Z,70.03
2023-03-03T21:26:52.097Z,67.07
2023-03-03T21:29:22.674Z,61.22
2023-03-03T21:31:51.738Z,60.90
2023-03-03T21:34:30.688Z,57.08
2023-03-03T21:37:00.290Z,61.08
2023-03-03T21:39:32.158Z,69.85
2023-03-03T21:42:03.190Z,73.60
2023-03-03T21:44:40.128Z,68.75
2023-03-03T21:47:10.161Z,70.18
2023-03-03T21:49:42.010Z,79.00
2023-03-03T21:52:10.105Z,76.83
2023-03-03T21:54:39.540Z,81.18
2023-03-03T21:57:07.512Z,86.07
2023-03-03T21:59:35.299Z,87.07
2023-03-03T22:02:02.908Z,89.28
2023-03-03T22:04:30.788Z,89.88
2023-03-03T22:06:58.437Z,92.17
2023-03-03T22:09:26.843Z,76.95
2023-03-03T22:11:55.849Z,71.68
2023-03-03T22:14:23.553Z,71.50
2023-03-03T22:16:51.211Z,73.68
2023-03-03T22:19:18.788Z,79.07
2023-03-03T22:21:47.690Z,71.63
2023-03-03T22:24:15.563Z,73.13
2023-03-03T22:26:43.264Z,69.60
2023-03-03T22:29:12.440Z,69.78
2023-03-03T22:31:40.400Z,68.07
2023-03-03T22:34:08.288Z,65.40
2023-03-03T22:36:35.948Z,69.10
2023-03-03T22:39:03.579Z,65.00
2023-03-03T22:41:31.228Z,71.78
2023-03-03T22:43:58.926Z,72.97
2023-03-03T22:46:28.076Z,73.68
2023-03-03T22:48:55.945Z,76.63
2023-03-03T22:51:23.561Z,72.43
2023-03-03T22:53:51.152Z,75.93
2023-03-03T22:56:18.767Z,74.22
2023-03-03T22:58:46.373Z,73.67
2023-03-03T23:01:14.065Z,73.85
2023-03-03T23:03:43.368Z,71.13
2023-03-03T23:06:11.004Z,76.20
2023-03-03T23:08:38.589Z,75.40
2023-03-03T23:11:06.349Z,76.90
2023-03-03T23:13:35.143Z,76.57
2023-03-03T23:16:03.023Z,73.68
2023-03-03T23:18:31.021Z,76.43
2023-03-03T23:21:00.052Z,72.63
2023-03-03T23:23:29.473Z,72.25
2023-03-03T23:25:57.156Z,77.17
2023-03-03T23:28:24.894Z,74.10
2023-03-03T23:30:52.576Z,76.65
2023-03-03T23:33:20.396Z,76.97
2023-03-03T23:35:49.791Z,76.13
2023-03-03T23:38:18.802Z,74.30
2023-03-03T23:40:47.633Z,74.45
2023-03-03T23:43:15.369Z,77.15
2023-03-03T23:45:43.034Z,74.35
2023-03-03T23:48:11.177Z,78.10
2023-03-03T23:50:39.261Z,79.43
2023-03-03T23:53:08.073Z,79.67
2023-03-03T23:55:37.560Z,80.33
2023-03-03T23:58:05.864Z,80.93
